sensor_id;sensor_type;location;lat;lon;timestamp;temperature;humidity
21115;DHT22;10715;48.546;9.896;2022-08-11T00:00:45;12.10;97.70
21115;DHT22;10715;48.546;9.896;2022-08-11T00:03:12;12.00;97.90
21115;DHT22;10715;48.546;9.896;2022-08-11T00:05:52;12.00;98.00
21115;DHT22;10715;48.546;9.896;2022-08-11T00:08:26;12.00;98.70
21115;DHT22;10715;48.546;9.896;2022-08-11T00:10:59;11.90;99.10
21115;DHT22;10715;48.546;9.896;2022-08-11T00:13:38;11.90;99.40
21115;DHT22;10715;48.546;9.896;2022-08-11T00:16:14;11.90;99.90
21115;DHT22;10715;48.546;9.896;2022-08-11T00:18:43;11.80;99.90
21115;DHT22;10715;48.546;9.896;2022-08-11T00:21:10;11.80;99.90
21115;DHT22;10715;48.546;9.896;2022-08-11T00:24:00;11.80;99.90
21115;DHT22;10715;48.546;9.896;2022-08-11T00:26:27;11.70;99.90
21115;DHT22;10715;48.546;9.896;2022-08-11T00:28:54;11.70;99.90
21115;DHT22;10715;48.546;9.896;2022-08-11T00:31:25;11.60;99.90
21115;DHT22;10715;48.546;9.896;2022-08-11T00:33:52;11.60;99.90
21115;DHT22;10715;48.546;9.896;2022-08-11T00:36:19;11.60;99.90
21115;DHT22;10715;48.546;9.896;2022-08-11T00:38:50;11.60;99.90
21115;DHT22;10715;48.546;9.896;2022-08-11T00:52:48;11.30;99.90
21115;DHT22;10715;48.546;9.896;2022-08-11T01:40:23;10.70;99.90
21115;DHT22;10715;48.546;9.896;2022-08-11T01:46:35;10.70;99.90
21115;DHT22;10715;48.546;9.896;2022-08-11T01:49:25;10.70;99.90
21115;DHT22;10715;48.546;9.896;2022-08-11T01:52:07;10.70;99.90
21115;DHT22;10715;48.546;9.896;2022-08-11T01:57:41;10.70;99.90
21115;DHT22;10715;48.546;9.896;2022-08-11T02:00:18;10.60;99.90
21115;DHT22;10715;48.546;9.896;2022-08-11T02:11:04;10.50;99.90
21115;DHT22;10715;48.546;9.896;2022-08-11T02:16:47;10.50;99.90
21115;DHT22;10715;48.546;9.896;2022-08-11T02:30:24;10.50;99.90
21115;DHT22;10715;48.546;9.896;2022-08-11T02:32:57;10.50;99.90
21115;DHT22;10715;48.546;9.896;2022-08-11T02:35:57;10.40;99.90
21115;DHT22;10715;48.546;9.896;2022-08-11T02:38:44;10.40;99.90
21115;DHT22;10715;48.546;9.896;2022-08-11T02:44:33;10.40;99.90
21115;DHT22;10715;48.546;9.896;2022-08-11T02:47:22;10.40;99.90
21115;DHT22;10715;48.546;9.896;2022-08-11T02:49:55;10.30;99.90
21115;DHT22;10715;48.546;9.896;2022-08-11T02:52:46;10.30;99.90
21115;DHT22;10715;48.546;9.896;2022-08-11T02:55:38;10.30;99.90
21115;DHT22;10715;48.546;9.896;2022-08-11T03:01:00;10.30;99.90
21115;DHT22;10715;48.546;9.896;2022-08-11T03:03:49;10.30;99.90
21115;DHT22;10715;48.546;9.896;2022-08-11T03:06:48;10.30;99.90
21115;DHT22;10715;48.546;9.896;2022-08-11T03:12:03;10.20;99.90
21115;DHT22;10715;48.546;9.896;2022-08-11T03:15:01;10.20;99.90
21115;DHT22;10715;48.546;9.896;2022-08-11T03:21:02;10.10;99.90
21115;DHT22;10715;48.546;9.896;2022-08-11T03:23:40;10.10;99.90
21115;DHT22;10715;48.546;9.896;2022-08-11T03:26:29;10.10;99.90
21115;DHT22;10715;48.546;9.896;2022-08-11T03:31:45;10.10;99.90
21115;DHT22;10715;48.546;9.896;2022-08-11T03:34:25;10.10;99.90
21115;DHT22;10715;48.546;9.896;2022-08-11T03:39:47;10.10;99.90
21115;DHT22;10715;48.546;9.896;2022-08-11T03:45:16;10.10;99.90
21115;DHT22;10715;48.546;9.896;2022-08-11T03:53:48;10.00;99.90
21115;DHT22;10715;48.546;9.896;2022-08-11T04:01:04;10.00;99.90
21115;DHT22;10715;48.546;9.896;2022-08-11T04:14:14;9.90;99.90
21115;DHT22;10715;48.546;9.896;2022-08-11T04:48:22;10.20;99.90
21115;DHT22;10715;48.546;9.896;2022-08-11T04:51:53;10.30;99.90
21115;DHT22;10715;48.546;9.896;2022-08-11T05:15:13;11.50;99.90
21115;DHT22;10715;48.546;9.896;2022-08-11T05:18:12;11.80;99.90
21115;DHT22;10715;48.546;9.896;2022-08-11T05:21:04;12.10;99.90
21115;DHT22;10715;48.546;9.896;2022-08-11T05:24:05;12.50;99.90
21115;DHT22;10715;48.546;9.896;2022-08-11T05:26:51;13.10;99.90
21115;DHT22;10715;48.546;9.896;2022-08-11T05:29:52;14.10;99.90
21115;DHT22;10715;48.546;9.896;2022-08-11T05:32:42;15.50;99.90
21115;DHT22;10715;48.546;9.896;2022-08-11T05:35:42;17.00;99.90
21115;DHT22;10715;48.546;9.896;2022-08-11T05:38:14;18.70;99.90
21115;DHT22;10715;48.546;9.896;2022-08-11T05:40:59;20.10;99.90
21115;DHT22;10715;48.546;9.896;2022-08-11T05:43:45;21.40;99.90
21115;DHT22;10715;48.546;9.896;2022-08-11T05:46:41;22.60;98.90
21115;DHT22;10715;48.546;9.896;2022-08-11T05:49:29;23.80;94.00
21115;DHT22;10715;48.546;9.896;2022-08-11T05:52:22;24.60;90.10
21115;DHT22;10715;48.546;9.896;2022-08-11T05:55:08;25.30;86.90
21115;DHT22;10715;48.546;9.896;2022-08-11T05:58:01;25.90;78.90
21115;DHT22;10715;48.546;9.896;2022-08-11T06:00:28;26.40;77.20
21115;DHT22;10715;48.546;9.896;2022-08-11T06:02:57;26.60;72.10
21115;DHT22;10715;48.546;9.896;2022-08-11T06:05:36;26.60;73.40
21115;DHT22;10715;48.546;9.896;2022-08-11T06:08:04;27.00;70.10
21115;DHT22;10715;48.546;9.896;2022-08-11T06:10:33;27.10;68.70
21115;DHT22;10715;48.546;9.896;2022-08-11T06:13:00;27.10;68.10
21115;DHT22;10715;48.546;9.896;2022-08-11T06:15:28;27.20;68.20
21115;DHT22;10715;48.546;9.896;2022-08-11T06:17:57;27.30;67.60
21115;DHT22;10715;48.546;9.896;2022-08-11T06:20:25;27.40;66.40
21115;DHT22;10715;48.546;9.896;2022-08-11T06:22:57;26.70;66.10
21115;DHT22;10715;48.546;9.896;2022-08-11T06:25:35;25.40;68.40
21115;DHT22;10715;48.546;9.896;2022-08-11T06:28:06;24.20;72.10
21115;DHT22;10715;48.546;9.896;2022-08-11T06:33:28;22.10;77.60
21115;DHT22;10715;48.546;9.896;2022-08-11T06:38:37;20.90;81.30
21115;DHT22;10715;48.546;9.896;2022-08-11T06:41:18;20.60;82.70
21115;DHT22;10715;48.546;9.896;2022-08-11T06:46:37;19.90;85.50
21115;DHT22;10715;48.546;9.896;2022-08-11T06:49:07;19.90;87.00
21115;DHT22;10715;48.546;9.896;2022-08-11T06:51:52;19.80;87.70
21115;DHT22;10715;48.546;9.896;2022-08-11T06:54:20;20.00;87.50
21115;DHT22;10715;48.546;9.896;2022-08-11T06:56:46;20.20;87.60
21115;DHT22;10715;48.546;9.896;2022-08-11T06:59:46;20.40;87.30
21115;DHT22;10715;48.546;9.896;2022-08-11T07:14:11;22.30;82.30
21115;DHT22;10715;48.546;9.896;2022-08-11T07:16:59;23.70;79.50
21115;DHT22;10715;48.546;9.896;2022-08-11T07:19:27;25.20;74.70
21115;DHT22;10715;48.546;9.896;2022-08-11T07:22:13;26.50;71.30
21115;DHT22;10715;48.546;9.896;2022-08-11T07:27:59;28.30;64.30
21115;DHT22;10715;48.546;9.896;2022-08-11T07:30:44;29.00;62.90
21115;DHT22;10715;48.546;9.896;2022-08-11T07:33:13;29.60;60.60
21115;DHT22;10715;48.546;9.896;2022-08-11T07:35:47;29.20;59.00
21115;DHT22;10715;48.546;9.896;2022-08-11T07:38:26;29.60;59.60
21115;DHT22;10715;48.546;9.896;2022-08-11T07:41:15;30.20;58.10
21115;DHT22;10715;48.546;9.896;2022-08-11T07:43:44;30.50;56.40
21115;DHT22;10715;48.546;9.896;2022-08-11T07:46:15;30.80;55.00
21115;DHT22;10715;48.546;9.896;2022-08-11T07:49:02;30.70;55.10
21115;DHT22;10715;48.546;9.896;2022-08-11T07:51:48;31.40;55.80
21115;DHT22;10715;48.546;9.896;2022-08-11T07:54:33;31.20;52.40
21115;DHT22;10715;48.546;9.896;2022-08-11T07:57:00;31.00;53.30
21115;DHT22;10715;48.546;9.896;2022-08-11T07:59:46;30.70;54.70
21115;DHT22;10715;48.546;9.896;2022-08-11T08:02:31;30.70;53.00
21115;DHT22;10715;48.546;9.896;2022-08-11T08:05:16;31.30;52.80
21115;DHT22;10715;48.546;9.896;2022-08-11T08:08:01;31.80;51.80
21115;DHT22;10715;48.546;9.896;2022-08-11T08:10:46;32.00;50.90
21115;DHT22;10715;48.546;9.896;2022-08-11T08:13:32;31.70;50.70
21115;DHT22;10715;48.546;9.896;2022-08-11T08:16:18;31.80;51.60
21115;DHT22;10715;48.546;9.896;2022-08-11T08:19:03;32.00;49.60
21115;DHT22;10715;48.546;9.896;2022-08-11T08:21:29;32.30;49.80
21115;DHT22;10715;48.546;9.896;2022-08-11T08:23:57;33.10;48.50
21115;DHT22;10715;48.546;9.896;2022-08-11T08:26:23;33.50;47.20
21115;DHT22;10715;48.546;9.896;2022-08-11T08:29:08;32.60;48.30
21115;DHT22;10715;48.546;9.896;2022-08-11T08:31:54;31.90;48.00
21115;DHT22;10715;48.546;9.896;2022-08-11T08:34:21;30.60;49.80
21115;DHT22;10715;48.546;9.896;2022-08-11T08:36:50;30.40;50.70
21115;DHT22;10715;48.546;9.896;2022-08-11T08:39:22;30.40;50.30
21115;DHT22;10715;48.546;9.896;2022-08-11T08:41:50;30.30;49.60
21115;DHT22;10715;48.546;9.896;2022-08-11T08:44:18;29.90;50.40
21115;DHT22;10715;48.546;9.896;2022-08-11T08:46:48;29.80;51.30
21115;DHT22;10715;48.546;9.896;2022-08-11T08:49:18;30.40;50.30
21115;DHT22;10715;48.546;9.896;2022-08-11T08:51:44;31.00;48.50
21115;DHT22;10715;48.546;9.896;2022-08-11T08:54:20;31.70;47.50
21115;DHT22;10715;48.546;9.896;2022-08-11T08:56:48;31.50;47.20
21115;DHT22;10715;48.546;9.896;2022-08-11T08:59:20;31.60;47.90
21115;DHT22;10715;48.546;9.896;2022-08-11T09:02:01;32.20;48.30
21115;DHT22;10715;48.546;9.896;2022-08-11T09:04:28;32.30;45.90
21115;DHT22;10715;48.546;9.896;2022-08-11T09:06:57;32.60;45.70
21115;DHT22;10715;48.546;9.896;2022-08-11T09:09:23;32.50;44.60
21115;DHT22;10715;48.546;9.896;2022-08-11T09:11:50;32.10;45.40
21115;DHT22;10715;48.546;9.896;2022-08-11T09:16:46;31.80;45.60
21115;DHT22;10715;48.546;9.896;2022-08-11T09:19:14;32.20;45.80
21115;DHT22;10715;48.546;9.896;2022-08-11T09:21:44;33.00;44.70
21115;DHT22;10715;48.546;9.896;2022-08-11T09:24:30;33.70;43.40
21115;DHT22;10715;48.546;9.896;2022-08-11T09:27:15;33.80;43.50
21115;DHT22;10715;48.546;9.896;2022-08-11T09:29:42;34.20;43.10
21115;DHT22;10715;48.546;9.896;2022-08-11T09:32:10;34.40;42.40
21115;DHT22;10715;48.546;9.896;2022-08-11T09:34:38;34.90;40.70
21115;DHT22;10715;48.546;9.896;2022-08-11T09:37:04;35.00;41.00
21115;DHT22;10715;48.546;9.896;2022-08-11T09:39:49;35.10;40.70
21115;DHT22;10715;48.546;9.896;2022-08-11T09:42:34;34.70;40.60
21115;DHT22;10715;48.546;9.896;2022-08-11T09:45:20;34.20;41.10
21115;DHT22;10715;48.546;9.896;2022-08-11T09:47:46;33.80;42.10
21115;DHT22;10715;48.546;9.896;2022-08-11T09:50:15;33.80;41.40
21115;DHT22;10715;48.546;9.896;2022-08-11T09:52:43;34.40;42.00
21115;DHT22;10715;48.546;9.896;2022-08-11T09:55:13;35.10;40.10
21115;DHT22;10715;48.546;9.896;2022-08-11T09:57:44;35.30;38.50
21115;DHT22;10715;48.546;9.896;2022-08-11T10:00:31;35.30;39.10
21115;DHT22;10715;48.546;9.896;2022-08-11T10:02:58;36.00;39.00
21115;DHT22;10715;48.546;9.896;2022-08-11T10:05:28;36.40;38.50
21115;DHT22;10715;48.546;9.896;2022-08-11T10:08:16;36.50;38.20
21115;DHT22;10715;48.546;9.896;2022-08-11T10:10:45;36.70;37.80
21115;DHT22;10715;48.546;9.896;2022-08-11T10:13:19;37.20;37.60
21115;DHT22;10715;48.546;9.896;2022-08-11T10:15:55;37.50;35.50
21115;DHT22;10715;48.546;9.896;2022-08-11T10:18:40;36.80;35.90
21115;DHT22;10715;48.546;9.896;2022-08-11T10:21:13;36.00;35.70
21115;DHT22;10715;48.546;9.896;2022-08-11T10:23:39;35.70;36.80
21115;DHT22;10715;48.546;9.896;2022-08-11T10:26:27;36.00;37.40
21115;DHT22;10715;48.546;9.896;2022-08-11T10:29:13;35.40;36.60
21115;DHT22;10715;48.546;9.896;2022-08-11T10:31:58;35.20;40.00
21115;DHT22;10715;48.546;9.896;2022-08-11T10:34:45;35.50;37.60
21115;DHT22;10715;48.546;9.896;2022-08-11T10:37:12;35.80;37.70
21115;DHT22;10715;48.546;9.896;2022-08-11T10:39:39;36.40;36.20
21115;DHT22;10715;48.546;9.896;2022-08-11T10:42:06;36.70;35.20
21115;DHT22;10715;48.546;9.896;2022-08-11T10:44:53;36.20;35.90
21115;DHT22;10715;48.546;9.896;2022-08-11T10:47:19;36.60;35.70
21115;DHT22;10715;48.546;9.896;2022-08-11T10:50:03;36.70;36.00
21115;DHT22;10715;48.546;9.896;2022-08-11T10:52:49;35.90;37.10
21115;DHT22;10715;48.546;9.896;2022-08-11T10:55:35;35.70;36.00
21115;DHT22;10715;48.546;9.896;2022-08-11T10:58:21;35.50;35.80
21115;DHT22;10715;48.546;9.896;2022-08-11T11:01:07;35.30;36.10
21115;DHT22;10715;48.546;9.896;2022-08-11T11:03:35;36.20;34.70
21115;DHT22;10715;48.546;9.896;2022-08-11T11:08:55;36.50;35.90
21115;DHT22;10715;48.546;9.896;2022-08-11T11:11:25;36.50;35.40
21115;DHT22;10715;48.546;9.896;2022-08-11T11:14:17;37.20;35.70
21115;DHT22;10715;48.546;9.896;2022-08-11T11:17:07;37.90;34.10
21115;DHT22;10715;48.546;9.896;2022-08-11T11:19:57;37.10;32.90
21115;DHT22;10715;48.546;9.896;2022-08-11T11:22:27;36.80;34.00
21115;DHT22;10715;48.546;9.896;2022-08-11T11:25:34;37.00;34.30
21115;DHT22;10715;48.546;9.896;2022-08-11T11:28:27;37.10;34.70
21115;DHT22;10715;48.546;9.896;2022-08-11T11:31:18;37.10;33.80
21115;DHT22;10715;48.546;9.896;2022-08-11T11:36:48;36.40;35.60
21115;DHT22;10715;48.546;9.896;2022-08-11T11:39:20;34.70;38.60
21115;DHT22;10715;48.546;9.896;2022-08-11T11:41:48;32.30;41.30
21115;DHT22;10715;48.546;9.896;2022-08-11T11:44:14;30.50;43.00
21115;DHT22;10715;48.546;9.896;2022-08-11T11:46:40;29.00;45.60
21115;DHT22;10715;48.546;9.896;2022-08-11T11:49:09;28.00;48.00
21115;DHT22;10715;48.546;9.896;2022-08-11T11:51:36;27.40;49.20
21115;DHT22;10715;48.546;9.896;2022-08-11T11:54:03;27.00;49.80
21115;DHT22;10715;48.546;9.896;2022-08-11T11:56:31;26.70;50.10
21115;DHT22;10715;48.546;9.896;2022-08-11T11:58:57;26.40;51.30
21115;DHT22;10715;48.546;9.896;2022-08-11T12:01:42;26.10;51.40
21115;DHT22;10715;48.546;9.896;2022-08-11T12:04:10;25.90;52.40
21115;DHT22;10715;48.546;9.896;2022-08-11T12:06:37;25.80;52.90
21115;DHT22;10715;48.546;9.896;2022-08-11T12:09:03;25.70;52.40
21115;DHT22;10715;48.546;9.896;2022-08-11T12:11:30;25.60;53.00
21115;DHT22;10715;48.546;9.896;2022-08-11T12:14:18;25.80;53.20
21115;DHT22;10715;48.546;9.896;2022-08-11T12:16:45;25.70;51.90
21115;DHT22;10715;48.546;9.896;2022-08-11T12:19:19;25.50;53.40
21115;DHT22;10715;48.546;9.896;2022-08-11T12:21:47;25.60;53.40
21115;DHT22;10715;48.546;9.896;2022-08-11T12:24:34;25.70;51.40
21115;DHT22;10715;48.546;9.896;2022-08-11T12:27:18;25.90;52.20
21115;DHT22;10715;48.546;9.896;2022-08-11T12:29:50;26.00;53.00
21115;DHT22;10715;48.546;9.896;2022-08-11T12:32:17;26.00;52.20
21115;DHT22;10715;48.546;9.896;2022-08-11T12:34:44;25.90;51.90
21115;DHT22;10715;48.546;9.896;2022-08-11T12:37:11;25.70;52.30
21115;DHT22;10715;48.546;9.896;2022-08-11T12:39:45;25.60;52.00
21115;DHT22;10715;48.546;9.896;2022-08-11T12:42:32;25.70;52.40
21115;DHT22;10715;48.546;9.896;2022-08-11T12:45:18;25.70;51.40
21115;DHT22;10715;48.546;9.896;2022-08-11T12:48:10;25.70;51.00
21115;DHT22;10715;48.546;9.896;2022-08-11T12:51:11;25.80;50.30
21115;DHT22;10715;48.546;9.896;2022-08-11T12:54:05;25.80;51.40
21115;DHT22;10715;48.546;9.896;2022-08-11T12:56:37;25.70;51.30
21115;DHT22;10715;48.546;9.896;2022-08-11T12:59:23;25.80;52.60
21115;DHT22;10715;48.546;9.896;2022-08-11T13:02:11;25.70;51.90
21115;DHT22;10715;48.546;9.896;2022-08-11T13:04:58;25.70;52.30
21115;DHT22;10715;48.546;9.896;2022-08-11T13:07:28;25.90;52.90
21115;DHT22;10715;48.546;9.896;2022-08-11T13:09:55;25.90;51.30
21115;DHT22;10715;48.546;9.896;2022-08-11T13:12:23;25.90;50.90
21115;DHT22;10715;48.546;9.896;2022-08-11T13:15:10;25.80;51.10
21115;DHT22;10715;48.546;9.896;2022-08-11T13:17:37;25.80;52.10
21115;DHT22;10715;48.546;9.896;2022-08-11T13:20:05;25.90;51.60
21115;DHT22;10715;48.546;9.896;2022-08-11T13:22:31;26.10;50.60
21115;DHT22;10715;48.546;9.896;2022-08-11T13:24:58;26.10;49.80
21115;DHT22;10715;48.546;9.896;2022-08-11T13:27:24;26.10;49.70
21115;DHT22;10715;48.546;9.896;2022-08-11T13:29:50;26.20;51.10
21115;DHT22;10715;48.546;9.896;2022-08-11T13:32:39;26.40;50.40
21115;DHT22;10715;48.546;9.896;2022-08-11T13:35:05;26.30;50.30
21115;DHT22;10715;48.546;9.896;2022-08-11T13:37:32;26.30;50.30
21115;DHT22;10715;48.546;9.896;2022-08-11T13:40:00;26.40;50.30
21115;DHT22;10715;48.546;9.896;2022-08-11T13:42:27;26.30;50.70
21115;DHT22;10715;48.546;9.896;2022-08-11T13:44:53;26.40;50.90
21115;DHT22;10715;48.546;9.896;2022-08-11T13:47:22;26.40;50.70
21115;DHT22;10715;48.546;9.896;2022-08-11T13:49:50;26.40;49.60
21115;DHT22;10715;48.546;9.896;2022-08-11T13:52:16;26.60;49.20
21115;DHT22;10715;48.546;9.896;2022-08-11T13:54:46;26.60;49.30
21115;DHT22;10715;48.546;9.896;2022-08-11T13:57:13;26.60;49.80
21115;DHT22;10715;48.546;9.896;2022-08-11T13:59:45;26.50;50.30
21115;DHT22;10715;48.546;9.896;2022-08-11T14:02:15;26.50;50.50
21115;DHT22;10715;48.546;9.896;2022-08-11T14:07:19;26.70;48.90
21115;DHT22;10715;48.546;9.896;2022-08-11T14:09:48;26.70;48.50
21115;DHT22;10715;48.546;9.896;2022-08-11T14:12:26;26.50;47.60
21115;DHT22;10715;48.546;9.896;2022-08-11T14:15:18;26.40;47.70
21115;DHT22;10715;48.546;9.896;2022-08-11T14:17:49;26.60;47.50
21115;DHT22;10715;48.546;9.896;2022-08-11T14:20:18;26.70;47.10
21115;DHT22;10715;48.546;9.896;2022-08-11T14:22:44;26.80;47.70
21115;DHT22;10715;48.546;9.896;2022-08-11T14:25:13;26.90;47.20
21115;DHT22;10715;48.546;9.896;2022-08-11T14:27:42;26.90;47.30
21115;DHT22;10715;48.546;9.896;2022-08-11T14:30:09;27.00;46.10
21115;DHT22;10715;48.546;9.896;2022-08-11T14:32:55;27.00;46.70
21115;DHT22;10715;48.546;9.896;2022-08-11T14:35:22;27.10;47.80
21115;DHT22;10715;48.546;9.896;2022-08-11T14:37:49;27.20;48.10
21115;DHT22;10715;48.546;9.896;2022-08-11T14:40:15;27.30;47.50
21115;DHT22;10715;48.546;9.896;2022-08-11T14:43:00;27.30;47.30
21115;DHT22;10715;48.546;9.896;2022-08-11T14:45:45;27.30;46.10
21115;DHT22;10715;48.546;9.896;2022-08-11T14:48:30;27.20;47.30
21115;DHT22;10715;48.546;9.896;2022-08-11T14:50:56;27.10;48.00
21115;DHT22;10715;48.546;9.896;2022-08-11T14:53:22;27.00;48.60
21115;DHT22;10715;48.546;9.896;2022-08-11T14:55:49;27.10;48.50
21115;DHT22;10715;48.546;9.896;2022-08-11T14:58:34;27.10;48.20
21115;DHT22;10715;48.546;9.896;2022-08-11T15:01:02;27.10;47.50
21115;DHT22;10715;48.546;9.896;2022-08-11T15:03:30;27.10;47.20
21115;DHT22;10715;48.546;9.896;2022-08-11T15:05:59;27.00;47.90
21115;DHT22;10715;48.546;9.896;2022-08-11T15:08:32;26.80;47.80
21115;DHT22;10715;48.546;9.896;2022-08-11T15:11:18;26.80;47.70
21115;DHT22;10715;48.546;9.896;2022-08-11T15:14:07;26.80;47.30
21115;DHT22;10715;48.546;9.896;2022-08-11T15:16:36;26.70;47.50
21115;DHT22;10715;48.546;9.896;2022-08-11T15:19:21;26.60;46.40
21115;DHT22;10715;48.546;9.896;2022-08-11T15:21:48;26.60;46.50
21115;DHT22;10715;48.546;9.896;2022-08-11T15:24:33;26.60;47.10
21115;DHT22;10715;48.546;9.896;2022-08-11T15:27:04;26.60;46.50
21115;DHT22;10715;48.546;9.896;2022-08-11T15:29:53;26.70;47.20
21115;DHT22;10715;48.546;9.896;2022-08-11T15:32:37;26.70;46.90
21115;DHT22;10715;48.546;9.896;2022-08-11T15:35:22;26.60;45.30
21115;DHT22;10715;48.546;9.896;2022-08-11T15:38:22;26.50;46.30
21115;DHT22;10715;48.546;9.896;2022-08-11T15:40:50;26.50;46.60
21115;DHT22;10715;48.546;9.896;2022-08-11T15:43:41;26.40;47.30
21115;DHT22;10715;48.546;9.896;2022-08-11T15:49:13;26.20;46.20
21115;DHT22;10715;48.546;9.896;2022-08-11T15:52:08;26.10;46.60
21115;DHT22;10715;48.546;9.896;2022-08-11T15:54:38;26.10;47.10
21115;DHT22;10715;48.546;9.896;2022-08-11T15:57:07;26.00;47.10
21115;DHT22;10715;48.546;9.896;2022-08-11T15:59:36;26.00;46.10
21115;DHT22;10715;48.546;9.896;2022-08-11T16:02:21;26.10;46.40
21115;DHT22;10715;48.546;9.896;2022-08-11T16:05:02;26.10;47.30
21115;DHT22;10715;48.546;9.896;2022-08-11T16:07:32;26.10;47.20
21115;DHT22;10715;48.546;9.896;2022-08-11T16:10:13;26.10;47.10
21115;DHT22;10715;48.546;9.896;2022-08-11T16:12:58;26.10;46.70
21115;DHT22;10715;48.546;9.896;2022-08-11T16:15:44;26.00;47.20
21115;DHT22;10715;48.546;9.896;2022-08-11T16:18:33;25.90;46.70
21115;DHT22;10715;48.546;9.896;2022-08-11T16:21:13;25.80;46.50
21115;DHT22;10715;48.546;9.896;2022-08-11T16:23:42;25.70;47.20
21115;DHT22;10715;48.546;9.896;2022-08-11T16:26:10;25.50;46.80
21115;DHT22;10715;48.546;9.896;2022-08-11T16:28:37;25.40;47.50
21115;DHT22;10715;48.546;9.896;2022-08-11T16:31:06;25.40;47.30
21115;DHT22;10715;48.546;9.896;2022-08-11T16:33:38;25.40;47.60
21115;DHT22;10715;48.546;9.896;2022-08-11T16:36:07;25.40;46.80
21115;DHT22;10715;48.546;9.896;2022-08-11T16:38:56;25.40;47.00
21115;DHT22;10715;48.546;9.896;2022-08-11T16:41:26;25.40;47.30
21115;DHT22;10715;48.546;9.896;2022-08-11T16:44:14;25.30;47.30
21115;DHT22;10715;48.546;9.896;2022-08-11T16:47:00;25.30;47.10
21115;DHT22;10715;48.546;9.896;2022-08-11T16:49:31;25.30;47.30
21115;DHT22;10715;48.546;9.896;2022-08-11T16:51:58;25.20;47.20
21115;DHT22;10715;48.546;9.896;2022-08-11T16:54:33;25.20;46.50
21115;DHT22;10715;48.546;9.896;2022-08-11T16:57:02;25.10;47.40
21115;DHT22;10715;48.546;9.896;2022-08-11T16:59:49;25.10;47.20
21115;DHT22;10715;48.546;9.896;2022-08-11T17:02:16;25.00;47.90
21115;DHT22;10715;48.546;9.896;2022-08-11T17:05:05;25.00;47.80
21115;DHT22;10715;48.546;9.896;2022-08-11T17:07:51;24.90;47.90
21115;DHT22;10715;48.546;9.896;2022-08-11T17:11:01;24.90;47.80
21115;DHT22;10715;48.546;9.896;2022-08-11T17:13:58;24.90;48.00
21115;DHT22;10715;48.546;9.896;2022-08-11T17:16:36;24.80;48.20
21115;DHT22;10715;48.546;9.896;2022-08-11T17:19:12;24.80;48.30
21115;DHT22;10715;48.546;9.896;2022-08-11T17:21:48;24.70;47.80
21115;DHT22;10715;48.546;9.896;2022-08-11T17:24:35;24.60;47.90
21115;DHT22;10715;48.546;9.896;2022-08-11T17:27:04;24.50;48.20
21115;DHT22;10715;48.546;9.896;2022-08-11T17:29:39;24.40;49.00
21115;DHT22;10715;48.546;9.896;2022-08-11T17:32:22;24.30;48.30
21115;DHT22;10715;48.546;9.896;2022-08-11T17:35:10;24.10;48.50
21115;DHT22;10715;48.546;9.896;2022-08-11T17:38:03;24.00;48.70
21115;DHT22;10715;48.546;9.896;2022-08-11T17:40:33;23.90;49.00
21115;DHT22;10715;48.546;9.896;2022-08-11T17:43:02;23.80;49.30
21115;DHT22;10715;48.546;9.896;2022-08-11T17:45:47;23.70;49.60
21115;DHT22;10715;48.546;9.896;2022-08-11T17:48:35;23.60;50.20
21115;DHT22;10715;48.546;9.896;2022-08-11T17:51:08;23.40;50.70
21115;DHT22;10715;48.546;9.896;2022-08-11T17:53:41;23.30;51.10
21115;DHT22;10715;48.546;9.896;2022-08-11T17:56:27;23.20;51.20
21115;DHT22;10715;48.546;9.896;2022-08-11T17:59:14;23.00;51.40
21115;DHT22;10715;48.546;9.896;2022-08-11T18:02:02;22.90;51.50
21115;DHT22;10715;48.546;9.896;2022-08-11T18:04:50;22.80;52.10
21115;DHT22;10715;48.546;9.896;2022-08-11T18:07:18;22.70;52.40
21115;DHT22;10715;48.546;9.896;2022-08-11T18:10:05;22.60;52.40
21115;DHT22;10715;48.546;9.896;2022-08-11T18:12:51;22.50;53.00
21115;DHT22;10715;48.546;9.896;2022-08-11T18:15:41;22.30;54.70
21115;DHT22;10715;48.546;9.896;2022-08-11T18:18:26;22.20;54.60
21115;DHT22;10715;48.546;9.896;2022-08-11T18:21:15;21.90;56.20
21115;DHT22;10715;48.546;9.896;2022-08-11T18:24:06;21.70;57.00
21115;DHT22;10715;48.546;9.896;2022-08-11T18:26:52;21.50;57.30
21115;DHT22;10715;48.546;9.896;2022-08-11T18:29:39;21.20;57.50
21115;DHT22;10715;48.546;9.896;2022-08-11T18:32:27;21.00;58.50
21115;DHT22;10715;48.546;9.896;2022-08-11T18:35:13;20.80;59.50
21115;DHT22;10715;48.546;9.896;2022-08-11T18:38:00;20.70;60.50
21115;DHT22;10715;48.546;9.896;2022-08-11T18:40:47;20.50;61.00
21115;DHT22;10715;48.546;9.896;2022-08-11T18:43:32;20.30;61.40
21115;DHT22;10715;48.546;9.896;2022-08-11T18:46:17;20.20;62.50
21115;DHT22;10715;48.546;9.896;2022-08-11T18:49:14;20.00;62.30
21115;DHT22;10715;48.546;9.896;2022-08-11T18:52:00;19.90;65.10
21115;DHT22;10715;48.546;9.896;2022-08-11T18:54:46;19.70;65.70
21115;DHT22;10715;48.546;9.896;2022-08-11T18:57:34;19.50;66.00
21115;DHT22;10715;48.546;9.896;2022-08-11T19:00:21;19.30;66.90
21115;DHT22;10715;48.546;9.896;2022-08-11T19:03:07;19.10;67.90
21115;DHT22;10715;48.546;9.896;2022-08-11T19:05:53;18.90;68.60
21115;DHT22;10715;48.546;9.896;2022-08-11T19:08:41;18.70;69.70
21115;DHT22;10715;48.546;9.896;2022-08-11T19:11:30;18.60;69.70
21115;DHT22;10715;48.546;9.896;2022-08-11T19:14:17;18.40;69.50
21115;DHT22;10715;48.546;9.896;2022-08-11T19:17:03;18.30;70.30
21115;DHT22;10715;48.546;9.896;2022-08-11T19:19:49;18.10;71.80
21115;DHT22;10715;48.546;9.896;2022-08-11T19:22:35;18.00;71.20
21115;DHT22;10715;48.546;9.896;2022-08-11T19:25:20;17.90;72.10
21115;DHT22;10715;48.546;9.896;2022-08-11T19:28:06;17.80;72.00
21115;DHT22;10715;48.546;9.896;2022-08-11T19:30:52;17.70;71.20
21115;DHT22;10715;48.546;9.896;2022-08-11T19:33:38;17.60;71.60
21115;DHT22;10715;48.546;9.896;2022-08-11T19:36:24;17.50;71.90
21115;DHT22;10715;48.546;9.896;2022-08-11T19:39:10;17.50;71.40
21115;DHT22;10715;48.546;9.896;2022-08-11T19:41:56;17.40;71.60
21115;DHT22;10715;48.546;9.896;2022-08-11T19:44:42;17.30;71.90
21115;DHT22;10715;48.546;9.896;2022-08-11T19:47:27;17.20;73.00
21115;DHT22;10715;48.546;9.896;2022-08-11T19:50:13;17.10;74.00
21115;DHT22;10715;48.546;9.896;2022-08-11T19:52:58;16.90;73.40
21115;DHT22;10715;48.546;9.896;2022-08-11T19:55:47;16.80;73.60
21115;DHT22;10715;48.546;9.896;2022-08-11T19:58:33;16.70;74.50
21115;DHT22;10715;48.546;9.896;2022-08-11T20:01:19;16.60;74.20
21115;DHT22;10715;48.546;9.896;2022-08-11T20:04:03;16.50;74.90
21115;DHT22;10715;48.546;9.896;2022-08-11T20:06:48;16.40;74.90
21115;DHT22;10715;48.546;9.896;2022-08-11T20:09:34;16.30;75.90
21115;DHT22;10715;48.546;9.896;2022-08-11T20:12:19;16.20;75.30
21115;DHT22;10715;48.546;9.896;2022-08-11T20:15:05;16.10;76.30